sensor_id;sensor_type;location;lat;lon;timestamp;pressure;altitude;pressure_sealevel;temperature
15544;BMP180;7873;52.230;12.856;2022-10-31T00:01:45;101125.38;;;23.97
15544;BMP180;7873;52.230;12.856;2022-10-31T00:04:12;101132.59;;;23.96
15544;BMP180;7873;52.230;12.856;2022-10-31T00:06:38;101138.63;;;23.98
15544;BMP180;7873;52.230;12.856;2022-10-31T00:09:05;101136.78;;;23.99
15544;BMP180;7873;52.230;12.856;2022-10-31T00:11:33;101134.63;;;23.94
15544;BMP180;7873;52.230;12.856;2022-10-31T00:14:00;101140.19;;;23.93
15544;BMP180;7873;52.230;12.856;2022-10-31T00:16:27;101141.00;;;23.93
15544;BMP180;7873;52.230;12.856;2022-10-31T00:18:56;101146.22;;;23.95
15544;BMP180;7873;52.230;12.856;2022-10-31T00:21:24;101139.84;;;23.96
15544;BMP180;7873;52.230;12.856;2022-10-31T00:23:51;101154.13;;;23.96
15544;BMP180;7873;52.230;12.856;2022-10-31T00:26:18;101157.47;;;23.98
15544;BMP180;7873;52.230;12.856;2022-10-31T00:28:46;101159.34;;;23.98
15544;BMP180;7873;52.230;12.856;2022-10-31T00:31:13;101156.66;;;23.98
15544;BMP180;7873;52.230;12.856;2022-10-31T00:33:40;101172.78;;;23.98
15544;BMP180;7873;52.230;12.856;2022-10-31T00:36:14;101164.06;;;23.96
15544;BMP180;7873;52.230;12.856;2022-10-31T00:38:42;101162.03;;;23.98
15544;BMP180;7873;52.230;12.856;2022-10-31T00:41:09;101164.88;;;23.96
15544;BMP180;7873;52.230;12.856;2022-10-31T00:43:36;101173.47;;;23.92
15544;BMP180;7873;52.230;12.856;2022-10-31T00:46:04;101170.09;;;23.90
15544;BMP180;7873;52.230;12.856;2022-10-31T00:48:31;101165.72;;;23.89
15544;BMP180;7873;52.230;12.856;2022-10-31T00:50:58;101170.09;;;23.90
15544;BMP180;7873;52.230;12.856;2022-10-31T00:53:25;101180.84;;;23.90
15544;BMP180;7873;52.230;12.856;2022-10-31T00:55:51;101172.97;;;23.88
15544;BMP180;7873;52.230;12.856;2022-10-31T00:58:18;101169.78;;;23.85
15544;BMP180;7873;52.230;12.856;2022-10-31T01:00:46;101180.53;;;23.85
15544;BMP180;7873;52.230;12.856;2022-10-31T01:03:22;101171.66;;;23.84
15544;BMP180;7873;52.230;12.856;2022-10-31T01:05:59;101176.84;;;23.86
15544;BMP180;7873;52.230;12.856;2022-10-31T01:08:26;101178.72;;;23.85
15544;BMP180;7873;52.230;12.856;2022-10-31T01:11:04;101176.34;;;23.83
15544;BMP180;7873;52.230;12.856;2022-10-31T01:13:32;101173.66;;;23.83
15544;BMP180;7873;52.230;12.856;2022-10-31T01:16:00;101176.16;;;23.84
15544;BMP180;7873;52.230;12.856;2022-10-31T01:18:28;101182.22;;;23.78
15544;BMP180;7873;52.230;12.856;2022-10-31T01:21:01;101183.06;;;23.78
15544;BMP180;7873;52.230;12.856;2022-10-31T01:23:28;101187.44;;;23.79
15544;BMP180;7873;52.230;12.856;2022-10-31T01:26:06;101183.56;;;23.82
15544;BMP180;7873;52.230;12.856;2022-10-31T01:28:34;101184.44;;;23.83
15544;BMP180;7873;52.230;12.856;2022-10-31T01:31:02;101185.44;;;23.82
15544;BMP180;7873;52.230;12.856;2022-10-31T01:33:30;101191.13;;;23.78
15544;BMP180;7873;52.230;12.856;2022-10-31T01:35:57;101188.44;;;23.78
15544;BMP180;7873;52.230;12.856;2022-10-31T01:38:24;101183.56;;;23.82
15544;BMP180;7873;52.230;12.856;2022-10-31T01:40:51;101183.72;;;23.80
15544;BMP180;7873;52.230;12.856;2022-10-31T01:43:18;101191.81;;;23.80
15544;BMP180;7873;52.230;12.856;2022-10-31T01:45:51;101185.56;;;23.80
15544;BMP180;7873;52.230;12.856;2022-10-31T01:48:21;101186.94;;;23.84
15544;BMP180;7873;52.230;12.856;2022-10-31T01:50:51;101189.63;;;23.84
15544;BMP180;7873;52.230;12.856;2022-10-31T01:53:21;101189.81;;;23.83
15544;BMP180;7873;52.230;12.856;2022-10-31T01:55:48;101191.31;;;23.85
15544;BMP180;7873;52.230;12.856;2022-10-31T01:58:19;101187.94;;;23.83
15544;BMP180;7873;52.230;12.856;2022-10-31T02:00:49;101190.94;;;23.80
15544;BMP180;7873;52.230;12.856;2022-10-31T02:03:18;101191.66;;;23.82
15544;BMP180;7873;52.230;12.856;2022-10-31T02:05:46;101192.63;;;23.81
15544;BMP180;7873;52.230;12.856;2022-10-31T02:08:18;101190.13;;;23.79
15544;BMP180;7873;52.230;12.856;2022-10-31T02:10:46;101190.28;;;23.78
15544;BMP180;7873;52.230;12.856;2022-10-31T02:13:14;101191.28;;;23.77
15544;BMP180;7873;52.230;12.856;2022-10-31T02:15:42;101194.13;;;23.75
15544;BMP180;7873;52.230;12.856;2022-10-31T02:18:10;101202.88;;;23.77
15544;BMP180;7873;52.230;12.856;2022-10-31T02:20:44;101201.72;;;23.80
15544;BMP180;7873;52.230;12.856;2022-10-31T02:23:35;101204.91;;;23.75
15544;BMP180;7873;52.230;12.856;2022-10-31T02:26:31;101208.59;;;23.74
15544;BMP180;7873;52.230;12.856;2022-10-31T02:29:12;101206.75;;;23.75
15544;BMP180;7873;52.230;12.856;2022-10-31T02:31:46;101210.63;;;23.73
15544;BMP180;7873;52.230;12.856;2022-10-31T02:34:19;101207.59;;;23.75
15544;BMP180;7873;52.230;12.856;2022-10-31T02:36:52;101203.75;;;23.70
15544;BMP180;7873;52.230;12.856;2022-10-31T02:39:24;101210.47;;;23.74
15544;BMP180;7873;52.230;12.856;2022-10-31T02:41:58;101210.63;;;23.73
15544;BMP180;7873;52.230;12.856;2022-10-31T02:44:30;101212.63;;;23.71
15544;BMP180;7873;52.230;12.856;2022-10-31T02:47:01;101217.00;;;23.72
15544;BMP180;7873;52.230;12.856;2022-10-31T02:49:33;101209.13;;;23.70
15544;BMP180;7873;52.230;12.856;2022-10-31T02:52:00;101218.22;;;23.69
15544;BMP180;7873;52.230;12.856;2022-10-31T02:54:28;101217.34;;;23.69
15544;BMP180;7873;52.230;12.856;2022-10-31T02:56:58;101218.22;;;23.69
15544;BMP180;7873;52.230;12.856;2022-10-31T02:59:27;101221.06;;;23.68
15544;BMP180;7873;52.230;12.856;2022-10-31T03:02:19;101231.81;;;23.68
15544;BMP180;7873;52.230;12.856;2022-10-31T03:04:57;101231.28;;;23.64
15544;BMP180;7873;52.230;12.856;2022-10-31T03:07:32;101236.66;;;23.64
15544;BMP180;7873;52.230;12.856;2022-10-31T03:10:05;101239.53;;;23.63
15544;BMP180;7873;52.230;12.856;2022-10-31T03:12:38;101242.41;;;23.61
15544;BMP180;7873;52.230;12.856;2022-10-31T03:15:12;101235.34;;;23.60
15544;BMP180;7873;52.230;12.856;2022-10-31T03:17:50;101243.41;;;23.60
15544;BMP180;7873;52.230;12.856;2022-10-31T03:20:21;101247.97;;;23.60
15544;BMP180;7873;52.230;12.856;2022-10-31T03:22:50;101249.63;;;23.61
15544;BMP180;7873;52.230;12.856;2022-10-31T03:25:18;101254.66;;;23.64
15544;BMP180;7873;52.230;12.856;2022-10-31T03:27:46;101249.63;;;23.61
15544;BMP180;7873;52.230;12.856;2022-10-31T03:30:14;101249.13;;;23.57
15544;BMP180;7873;52.230;12.856;2022-10-31T03:32:45;101252.50;;;23.51
15544;BMP180;7873;52.230;12.856;2022-10-31T03:35:15;101248.59;;;23.54
15544;BMP180;7873;52.230;12.856;2022-10-31T03:37:45;101251.13;;;23.55
15544;BMP180;7873;52.230;12.856;2022-10-31T03:40:14;101259.34;;;23.54
15544;BMP180;7873;52.230;12.856;2022-10-31T03:42:44;101254.84;;;23.54
15544;BMP180;7873;52.230;12.856;2022-10-31T03:45:16;101260.88;;;23.56
15544;BMP180;7873;52.230;12.856;2022-10-31T03:47:47;101259.53;;;23.60
15544;BMP180;7873;52.230;12.856;2022-10-31T03:50:14;101265.59;;;23.62
15544;BMP180;7873;52.230;12.856;2022-10-31T03:52:44;101259.03;;;23.65
15544;BMP180;7873;52.230;12.856;2022-10-31T03:55:17;101265.09;;;23.67
15544;BMP180;7873;52.230;12.856;2022-10-31T03:57:48;101272.81;;;23.70
15544;BMP180;7873;52.230;12.856;2022-10-31T04:00:18;101272.28;;;23.66
15544;BMP180;7873;52.230;12.856;2022-10-31T04:02:49;101262.56;;;23.65
15544;BMP180;7873;52.230;12.856;2022-10-31T04:05:19;101266.91;;;23.66
15544;BMP180;7873;52.230;12.856;2022-10-31T04:07:49;101273.50;;;23.64
15544;BMP180;7873;52.230;12.856;2022-10-31T04:10:18;101275.00;;;23.50
15544;BMP180;7873;52.230;12.856;2022-10-31T04:12:48;101276.84;;;23.50
15544;BMP180;7873;52.230;12.856;2022-10-31T04:15:17;101285.41;;;23.53
15544;BMP180;7873;52.230;12.856;2022-10-31T04:17:47;101283.06;;;23.58
15544;BMP180;7873;52.230;12.856;2022-10-31T04:20:17;101287.94;;;23.63
15544;BMP180;7873;52.230;12.856;2022-10-31T04:22:43;101281.56;;;23.64
15544;BMP180;7873;52.230;12.856;2022-10-31T04:25:10;101284.91;;;23.66
15544;BMP180;7873;52.230;12.856;2022-10-31T04:27:37;101279.19;;;23.69
15544;BMP180;7873;52.230;12.856;2022-10-31T04:30:05;101286.59;;;23.67
15544;BMP180;7873;52.230;12.856;2022-10-31T04:32:31;101289.78;;;23.62
15544;BMP180;7873;52.230;12.856;2022-10-31T04:34:59;101287.94;;;23.63
15544;BMP180;7873;52.230;12.856;2022-10-31T04:37:26;101295.69;;;23.66
15544;BMP180;7873;52.230;12.856;2022-10-31T04:39:53;101291.47;;;23.63
15544;BMP180;7873;52.230;12.856;2022-10-31T04:42:19;101285.59;;;23.60
15544;BMP180;7873;52.230;12.856;2022-10-31T04:44:46;101296.50;;;23.58
15544;BMP180;7873;52.230;12.856;2022-10-31T04:47:12;101299.38;;;23.57
15544;BMP180;7873;52.230;12.856;2022-10-31T04:49:39;101298.38;;;23.58
15544;BMP180;7873;52.230;12.856;2022-10-31T04:52:07;101297.34;;;23.59
15544;BMP180;7873;52.230;12.856;2022-10-31T04:54:34;101282.25;;;23.58
15544;BMP180;7873;52.230;12.856;2022-10-31T04:57:01;101285.41;;;23.53
15544;BMP180;7873;52.230;12.856;2022-10-31T04:59:27;101286.25;;;23.54
15544;BMP180;7873;52.230;12.856;2022-10-31T05:01:54;101290.47;;;23.56
15544;BMP180;7873;52.230;12.856;2022-10-31T05:04:21;101296.31;;;23.52
15544;BMP180;7873;52.230;12.856;2022-10-31T05:06:47;101296.16;;;23.53
15544;BMP180;7873;52.230;12.856;2022-10-31T05:09:15;101291.31;;;23.57
15544;BMP180;7873;52.230;12.856;2022-10-31T05:11:42;101290.94;;;23.52
15544;BMP180;7873;52.230;12.856;2022-10-31T05:14:09;101282.72;;;23.53
15544;BMP180;7873;52.230;12.856;2022-10-31T05:16:35;101289.13;;;23.52
15544;BMP180;7873;52.230;12.856;2022-10-31T05:19:02;101285.22;;;23.55
15544;BMP180;7873;52.230;12.856;2022-10-31T05:21:28;101295.31;;;23.53
15544;BMP180;7873;52.230;12.856;2022-10-31T05:23:55;101284.91;;;23.50
15544;BMP180;7873;52.230;12.856;2022-10-31T05:26:23;101289.94;;;23.45
15544;BMP180;7873;52.230;12.856;2022-10-31T05:28:50;101296.84;;;23.47
15544;BMP180;7873;52.230;12.856;2022-10-31T05:31:17;101301.03;;;23.50
15544;BMP180;7873;52.230;12.856;2022-10-31T05:33:43;101300.03;;;23.51
15544;BMP180;7873;52.230;12.856;2022-10-31T05:36:10;101299.69;;;23.46
15544;BMP180;7873;52.230;12.856;2022-10-31T05:38:37;101293.97;;;23.41
15544;BMP180;7873;52.230;12.856;2022-10-31T05:41:04;101299.50;;;23.39
15544;BMP180;7873;52.230;12.856;2022-10-31T05:43:32;101305.72;;;23.40
15544;BMP180;7873;52.230;12.856;2022-10-31T05:45:58;101302.19;;;23.39
15544;BMP180;7873;52.230;12.856;2022-10-31T05:48:25;101304.38;;;23.36
15544;BMP180;7873;52.230;12.856;2022-10-31T05:50:52;101307.91;;;23.36
15544;BMP180;7873;52.230;12.856;2022-10-31T05:53:18;101302.38;;;23.38
15544;BMP180;7873;52.230;12.856;2022-10-31T05:55:45;101301.50;;;23.37
15544;BMP180;7873;52.230;12.856;2022-10-31T05:58:12;101310.09;;;23.33
15544;BMP180;7873;52.230;12.856;2022-10-31T06:00:40;101307.41;;;23.33
15544;BMP180;7873;52.230;12.856;2022-10-31T06:03:08;101308.72;;;23.29
15544;BMP180;7873;52.230;12.856;2022-10-31T06:05:34;101310.41;;;23.30
15544;BMP180;7873;52.230;12.856;2022-10-31T06:08:01;101308.72;;;23.29
15544;BMP180;7873;52.230;12.856;2022-10-31T06:10:28;101311.41;;;23.29
15544;BMP180;7873;52.230;12.856;2022-10-31T06:12:54;101309.72;;;23.28
15544;BMP180;7873;52.230;12.856;2022-10-31T06:15:21;101311.41;;;23.29
15544;BMP180;7873;52.230;12.856;2022-10-31T06:17:58;101316.09;;;23.27
15544;BMP180;7873;52.230;12.856;2022-10-31T06:20:25;101329.53;;;23.27
15544;BMP180;7873;52.230;12.856;2022-10-31T06:22:52;101327.72;;;23.27
15544;BMP180;7873;52.230;12.856;2022-10-31T06:25:18;101324.16;;;23.27
15544;BMP180;7873;52.230;12.856;2022-10-31T06:27:45;101328.53;;;23.28
15544;BMP180;7873;52.230;12.856;2022-10-31T06:30:12;101333.09;;;23.27
15544;BMP180;7873;52.230;12.856;2022-10-31T06:32:39;101339.28;;;23.28
15544;BMP180;7873;52.230;12.856;2022-10-31T06:35:07;101337.94;;;23.24
15544;BMP180;7873;52.230;12.856;2022-10-31T06:37:34;101343.50;;;23.22
15544;BMP180;7873;52.230;12.856;2022-10-31T06:40:00;101344.66;;;23.20
15544;BMP180;7873;52.230;12.856;2022-10-31T06:42:27;101343.78;;;23.19
15544;BMP180;7873;52.230;12.856;2022-10-31T06:44:54;101342.78;;;23.20
15544;BMP180;7873;52.230;12.856;2022-10-31T06:47:20;101351.72;;;23.21
15544;BMP180;7873;52.230;12.856;2022-10-31T06:49:47;101349.16;;;23.19
15544;BMP180;7873;52.230;12.856;2022-10-31T06:52:15;101353.72;;;23.19
15544;BMP180;7873;52.230;12.856;2022-10-31T06:54:42;101355.53;;;23.18
15544;BMP180;7873;52.230;12.856;2022-10-31T06:57:08;101348.16;;;23.20
15544;BMP180;7873;52.230;12.856;2022-10-31T06:59:35;101355.06;;;23.15
15544;BMP180;7873;52.230;12.856;2022-10-31T07:02:02;101354.88;;;23.16
15544;BMP180;7873;52.230;12.856;2022-10-31T07:04:29;101355.53;;;23.18
15544;BMP180;7873;52.230;12.856;2022-10-31T07:06:55;101360.78;;;23.20
15544;BMP180;7873;52.230;12.856;2022-10-31T07:09:23;101360.63;;;23.21
15544;BMP180;7873;52.230;12.856;2022-10-31T07:11:51;101360.09;;;23.18
15544;BMP180;7873;52.230;12.856;2022-10-31T07:14:18;101362.94;;;23.16
15544;BMP180;7873;52.230;12.856;2022-10-31T07:16:48;101369.50;;;23.14
15544;BMP180;7873;52.230;12.856;2022-10-31T07:19:15;101359.56;;;23.14
15544;BMP180;7873;52.230;12.856;2022-10-31T07:21:41;101369.50;;;23.14
15544;BMP180;7873;52.230;12.856;2022-10-31T07:24:08;101376.88;;;23.12
15544;BMP180;7873;52.230;12.856;2022-10-31T07:26:36;101373.19;;;23.13
15544;BMP180;7873;52.230;12.856;2022-10-31T07:29:03;101367.97;;;23.11
15544;BMP180;7873;52.230;12.856;2022-10-31T07:31:30;101369.50;;;23.14
15544;BMP180;7873;52.230;12.856;2022-10-31T07:33:57;101367.97;;;23.11
15544;BMP180;7873;52.230;12.856;2022-10-31T07:36:23;101367.81;;;23.13
15544;BMP180;7873;52.230;12.856;2022-10-31T07:38:50;101375.53;;;23.16
15544;BMP180;7873;52.230;12.856;2022-10-31T07:41:17;101379.81;;;23.09
15544;BMP180;7873;52.230;12.856;2022-10-31T07:43:45;101371.19;;;23.15
15544;BMP180;7873;52.230;12.856;2022-10-31T07:46:11;101383.25;;;23.11
15544;BMP180;7873;52.230;12.856;2022-10-31T07:48:38;101384.94;;;23.12
15544;BMP180;7873;52.230;12.856;2022-10-31T07:51:04;101384.38;;;23.08
15544;BMP180;7873;52.230;12.856;2022-10-31T07:53:32;101387.88;;;23.09
15544;BMP180;7873;52.230;12.856;2022-10-31T07:55:58;101397.97;;;23.07
15544;BMP180;7873;52.230;12.856;2022-10-31T07:58:25;101401.31;;;23.09
15544;BMP180;7873;52.230;12.856;2022-10-31T08:00:53;101393.09;;;23.10
15544;BMP180;7873;52.230;12.856;2022-10-31T08:03:20;101400.34;;;23.10
15544;BMP180;7873;52.230;12.856;2022-10-31T08:05:46;101401.31;;;23.09
15544;BMP180;7873;52.230;12.856;2022-10-31T08:08:15;101401.16;;;23.10
15544;BMP180;7873;52.230;12.856;2022-10-31T08:10:42;101402.31;;;23.08
15544;BMP180;7873;52.230;12.856;2022-10-31T08:13:10;101402.50;;;23.06
15544;BMP180;7873;52.230;12.856;2022-10-31T08:15:37;101401.66;;;23.06
15544;BMP180;7873;52.230;12.856;2022-10-31T08:18:11;101405.00;;;23.08
15544;BMP180;7873;52.230;12.856;2022-10-31T08:20:38;101402.84;;;23.03
15544;BMP180;7873;52.230;12.856;2022-10-31T08:23:05;101402.28;;;22.92
15544;BMP180;7873;52.230;12.856;2022-10-31T08:25:34;101406.09;;;22.89
15544;BMP180;7873;52.230;12.856;2022-10-31T08:28:01;101408.28;;;22.86
15544;BMP180;7873;52.230;12.856;2022-10-31T08:30:30;101398.91;;;22.90
15544;BMP180;7873;52.230;12.856;2022-10-31T08:33:02;101400.25;;;22.94
15544;BMP180;7873;52.230;12.856;2022-10-31T08:35:32;101409.81;;;22.96
15544;BMP180;7873;52.230;12.856;2022-10-31T08:37:58;101410.88;;;23.03
15544;BMP180;7873;52.230;12.856;2022-10-31T08:40:26;101409.88;;;23.04
15544;BMP180;7873;52.230;12.856;2022-10-31T08:42:58;101407.44;;;23.11
15544;BMP180;7873;52.230;12.856;2022-10-31T08:45:25;101410.13;;;23.11
15544;BMP180;7873;52.230;12.856;2022-10-31T08:47:56;101414.31;;;23.13
15544;BMP180;7873;52.230;12.856;2022-10-31T08:50:23;101404.25;;;23.15
15544;BMP180;7873;52.230;12.856;2022-10-31T08:52:51;101412.84;;;23.19
15544;BMP180;7873;52.230;12.856;2022-10-31T08:55:18;101410.50;;;23.24
15544;BMP180;7873;52.230;12.856;2022-10-31T08:57:44;101418.41;;;23.25
15544;BMP180;7873;52.230;12.856;2022-10-31T09:00:11;101414.53;;;23.28
15544;BMP180;7873;52.230;12.856;2022-10-31T09:02:38;101414.38;;;23.29
15544;BMP180;7873;52.230;12.856;2022-10-31T09:05:05;101420.25;;;23.25
15544;BMP180;7873;52.230;12.856;2022-10-31T09:07:32;101414.53;;;23.28
15544;BMP180;7873;52.230;12.856;2022-10-31T09:10:00;101412.53;;;23.30
15544;BMP180;7873;52.230;12.856;2022-10-31T09:12:27;101415.88;;;23.24
15544;BMP180;7873;52.230;12.856;2022-10-31T09:14:53;101414.03;;;23.24
15544;BMP180;7873;52.230;12.856;2022-10-31T09:17:20;101413.72;;;23.27
15544;BMP180;7873;52.230;12.856;2022-10-31T09:19:46;101413.03;;;23.25
15544;BMP180;7873;52.230;12.856;2022-10-31T09:22:14;101414.03;;;23.24
15544;BMP180;7873;52.230;12.856;2022-10-31T09:24:41;101415.19;;;23.22
15544;BMP180;7873;52.230;12.856;2022-10-31T09:27:09;101410.97;;;23.19
15544;BMP180;7873;52.230;12.856;2022-10-31T09:29:35;101419.53;;;23.15
15544;BMP180;7873;52.230;12.856;2022-10-31T09:32:02;101416.84;;;23.15
15544;BMP180;7873;52.230;12.856;2022-10-31T09:34:29;101419.88;;;23.12
15544;BMP180;7873;52.230;12.856;2022-10-31T09:36:55;101417.84;;;23.14
15544;BMP180;7873;52.230;12.856;2022-10-31T09:39:22;101422.91;;;23.17
15544;BMP180;7873;52.230;12.856;2022-10-31T09:42:04;101425.13;;;23.21
15544;BMP180;7873;52.230;12.856;2022-10-31T09:44:41;101415.03;;;23.23
15544;BMP180;7873;52.230;12.856;2022-10-31T09:47:14;101415.03;;;23.23
15544;BMP180;7873;52.230;12.856;2022-10-31T09:50:00;101414.84;;;23.17
15544;BMP180;7873;52.230;12.856;2022-10-31T09:52:30;101408.94;;;23.13
15544;BMP180;7873;52.230;12.856;2022-10-31T09:55:00;101412.97;;;23.17
15544;BMP180;7873;52.230;12.856;2022-10-31T09:57:32;101418.53;;;23.16
15544;BMP180;7873;52.230;12.856;2022-10-31T10:00:03;101414.16;;;23.15
15544;BMP180;7873;52.230;12.856;2022-10-31T10:02:32;101408.13;;;23.13
15544;BMP180;7873;52.230;12.856;2022-10-31T10:05:03;101408.13;;;23.13
15544;BMP180;7873;52.230;12.856;2022-10-31T10:07:37;101414.50;;;23.12
15544;BMP180;7873;52.230;12.856;2022-10-31T10:10:13;101413.63;;;23.11
15544;BMP180;7873;52.230;12.856;2022-10-31T10:12:49;101415.31;;;23.12
15544;BMP180;7873;52.230;12.856;2022-10-31T10:15:31;101408.41;;;23.10
15544;BMP180;7873;52.230;12.856;2022-10-31T10:18:05;101415.59;;;23.09
15544;BMP180;7873;52.230;12.856;2022-10-31T10:20:39;101409.38;;;23.09
15544;BMP180;7873;52.230;12.856;2022-10-31T10:23:23;101412.06;;;23.09
15544;BMP180;7873;52.230;12.856;2022-10-31T10:26:02;101412.06;;;23.09
15544;BMP180;7873;52.230;12.856;2022-10-31T10:28:35;101407.69;;;23.08
15544;BMP180;7873;52.230;12.856;2022-10-31T10:31:07;101406.88;;;23.07
15544;BMP180;7873;52.230;12.856;2022-10-31T10:33:37;101401.66;;;23.06
15544;BMP180;7873;52.230;12.856;2022-10-31T10:36:08;101403.31;;;23.07
15544;BMP180;7873;52.230;12.856;2022-10-31T10:38:46;101407.56;;;23.09
15544;BMP180;7873;52.230;12.856;2022-10-31T10:41:17;101400.50;;;23.08
15544;BMP180;7873;52.230;12.856;2022-10-31T10:43:43;101409.56;;;23.07
15544;BMP180;7873;52.230;12.856;2022-10-31T10:46:17;101405.00;;;23.08
15544;BMP180;7873;52.230;12.856;2022-10-31T10:49:11;101408.69;;;23.07
15544;BMP180;7873;52.230;12.856;2022-10-31T10:51:43;101410.56;;;23.06
15544;BMP180;7873;52.230;12.856;2022-10-31T10:54:38;101399.13;;;23.04
15544;BMP180;7873;52.230;12.856;2022-10-31T10:57:15;101399.13;;;23.04
15544;BMP180;7873;52.230;12.856;2022-10-31T10:59:45;101399.47;;;23.01
15544;BMP180;7873;52.230;12.856;2022-10-31T11:02:18;101397.59;;;23.02
15544;BMP180;7873;52.230;12.856;2022-10-31T11:04:47;101394.91;;;23.02
15544;BMP180;7873;52.230;12.856;2022-10-31T11:07:15;101394.91;;;23.02
15544;BMP180;7873;52.230;12.856;2022-10-31T11:09:42;101391.41;;;23.01
15544;BMP180;7873;52.230;12.856;2022-10-31T11:12:10;101395.09;;;23.00
15544;BMP180;7873;52.230;12.856;2022-10-31T11:14:44;101393.88;;;22.95
15544;BMP180;7873;52.230;12.856;2022-10-31T11:17:25;101383.63;;;22.90
15544;BMP180;7873;52.230;12.856;2022-10-31T11:20:00;101386.50;;;22.97
15544;BMP180;7873;52.230;12.856;2022-10-31T11:22:27;101388.22;;;23.06
15544;BMP180;7873;52.230;12.856;2022-10-31T11:24:54;101378.16;;;23.08
15544;BMP180;7873;52.230;12.856;2022-10-31T11:27:22;101373.00;;;23.14
15544;BMP180;7873;52.230;12.856;2022-10-31T11:29:50;101367.47;;;23.16
15544;BMP180;7873;52.230;12.856;2022-10-31T11:32:20;101367.63;;;23.14
15544;BMP180;7873;52.230;12.856;2022-10-31T11:34:48;101366.13;;;23.12
15544;BMP180;7873;52.230;12.856;2022-10-31T11:37:19;101375.47;;;23.08
15544;BMP180;7873;52.230;12.856;2022-10-31T11:39:49;101379.69;;;23.10
15544;BMP180;7873;52.230;12.856;2022-10-31T11:42:20;101370.50;;;23.21
15544;BMP180;7873;52.230;12.856;2022-10-31T11:44:48;101366.00;;;23.29
15544;BMP180;7873;52.230;12.856;2022-10-31T11:47:16;101363.66;;;23.34
15544;BMP180;7873;52.230;12.856;2022-10-31T11:49:46;101363.00;;;23.40
15544;BMP180;7873;52.230;12.856;2022-10-31T11:52:17;101363.53;;;23.44
15544;BMP180;7873;52.230;12.856;2022-10-31T11:54:47;101358.69;;;23.47
15544;BMP180;7873;52.230;12.856;2022-10-31T11:57:22;101355.47;;;23.52
15544;BMP180;7873;52.230;12.856;2022-10-31T11:59:52;101353.81;;;23.59
15544;BMP180;7873;52.230;12.856;2022-10-31T12:02:20;101353.31;;;23.63
15544;BMP180;7873;52.230;12.856;2022-10-31T12:04:53;101345.75;;;23.67
15544;BMP180;7873;52.230;12.856;2022-10-31T12:07:20;101346.44;;;23.69
15544;BMP180;7873;52.230;12.856;2022-10-31T12:09:47;101349.78;;;23.71
15544;BMP180;7873;52.230;12.856;2022-10-31T12:12:25;101344.06;;;23.66
15544;BMP180;7873;52.230;12.856;2022-10-31T12:15:09;101340.53;;;23.57
15544;BMP180;7873;52.230;12.856;2022-10-31T12:17:43;101345.38;;;23.54
15544;BMP180;7873;52.230;12.856;2022-10-31T12:20:21;101343.22;;;23.49
15544;BMP180;7873;52.230;12.856;2022-10-31T12:22:58;101339.34;;;23.52
15544;BMP180;7873;52.230;12.856;2022-10-31T12:25:38;101339.53;;;23.50
15544;BMP180;7873;52.230;12.856;2022-10-31T12:31:13;101340.53;;;23.49
15544;BMP180;7873;52.230;12.856;2022-10-31T12:33:53;101333.47;;;23.48
15544;BMP180;7873;52.230;12.856;2022-10-31T12:36:44;101319.19;;;23.48
15544;BMP180;7873;52.230;12.856;2022-10-31T12:39:23;101329.09;;;23.47
15544;BMP180;7873;52.230;12.856;2022-10-31T12:41:52;101330.94;;;23.47
15544;BMP180;7873;52.230;12.856;2022-10-31T12:44:35;101324.56;;;23.48
15544;BMP180;7873;52.230;12.856;2022-10-31T12:47:20;101323.06;;;23.45
15544;BMP180;7873;52.230;12.856;2022-10-31T12:49:54;101313.31;;;23.44
15544;BMP180;7873;52.230;12.856;2022-10-31T12:52:39;101325.56;;;23.47
15544;BMP180;7873;52.230;12.856;2022-10-31T12:55:20;101320.38;;;23.45
15544;BMP180;7873;52.230;12.856;2022-10-31T12:57:53;101316.97;;;23.43
15544;BMP180;7873;52.230;12.856;2022-10-31T13:00:20;101313.47;;;23.43
15544;BMP180;7873;52.230;12.856;2022-10-31T13:02:51;101309.78;;;23.44
15544;BMP180;7873;52.230;12.856;2022-10-31T13:05:25;101310.78;;;23.43
15544;BMP180;7873;52.230;12.856;2022-10-31T13:07:58;101313.47;;;23.43
15544;BMP180;7873;52.230;12.856;2022-10-31T13:10:30;101307.75;;;23.46
15544;BMP180;7873;52.230;12.856;2022-10-31T13:13:05;101314.28;;;23.43
15544;BMP180;7873;52.230;12.856;2022-10-31T13:15:38;101306.06;;;23.45
15544;BMP180;7873;52.230;12.856;2022-10-31T13:18:12;101302.72;;;23.43
15544;BMP180;7873;52.230;12.856;2022-10-31T13:20:44;101307.75;;;23.46
15544;BMP180;7873;52.230;12.856;2022-10-31T13:23:16;101307.94;;;23.44
15544;BMP180;7873;52.230;12.856;2022-10-31T13:25:47;101307.06;;;23.44
15544;BMP180;7873;52.230;12.856;2022-10-31T13:28:29;101297.19;;;23.44
15544;BMP180;7873;52.230;12.856;2022-10-31T13:30:57;101298.00;;;23.45
15544;BMP180;7873;52.230;12.856;2022-10-31T13:33:27;101293.63;;;23.44
15544;BMP180;7873;52.230;12.856;2022-10-31T13:36:06;101299.00;;;23.44
15544;BMP180;7873;52.230;12.856;2022-10-31T13:38:38;101293.63;;;23.44
15544;BMP180;7873;52.230;12.856;2022-10-31T13:41:12;101296.19;;;23.45
15544;BMP180;7873;52.230;12.856;2022-10-31T13:43:56;101296.31;;;23.44
15544;BMP180;7873;52.230;12.856;2022-10-31T13:46:34;101305.06;;;23.46
15544;BMP180;7873;52.230;12.856;2022-10-31T13:49:02;101289.78;;;23.46
15544;BMP180;7873;52.230;12.856;2022-10-31T13:51:30;101285.25;;;23.47
15544;BMP180;7873;52.230;12.856;2022-10-31T13:54:01;101292.47;;;23.46
15544;BMP180;7873;52.230;12.856;2022-10-31T13:56:28;101289.59;;;23.48
15544;BMP180;7873;52.230;12.856;2022-10-31T13:59:10;101289.44;;;23.49
15544;BMP180;7873;52.230;12.856;2022-10-31T14:01:47;101292.28;;;23.48
15544;BMP180;7873;52.230;12.856;2022-10-31T14:04:16;101288.94;;;23.46
15544;BMP180;7873;52.230;12.856;2022-10-31T14:06:51;101282.72;;;23.45
15544;BMP180;7873;52.230;12.856;2022-10-31T14:09:25;101287.25;;;23.45
15544;BMP180;7873;52.230;12.856;2022-10-31T14:11:53;101283.91;;;23.43
15544;BMP180;7873;52.230;12.856;2022-10-31T14:14:23;101282.22;;;23.42
15544;BMP180;7873;52.230;12.856;2022-10-31T14:16:55;101281.53;;;23.40